Time;durP1;ratioP1;P1;durP2;ratioP2;P2;SDS_P1;SDS_P2;PMS_P1;PMS_P2;Temp;Humidity;BMP_temperature;BMP_pressure;BME280_temperature;BME280_humidity;BME280_pressure;Samples;Min_cycle;Max_cycle;Signal;HPM_P1;HPM_P2
2021/04/28 00:00:31;;;;;;;21.77;11.80;;;;;;;13.07;67.51;100125.72;5010908;28;20042;-68
2021/04/28 00:02:57;;;;;;;20.90;13.88;;;;;;;13.13;67.83;100135.34;5009315;28;20045;-71
2021/04/28 00:05:23;;;;;;;38.22;21.60;;;;;;;13.14;67.47;100131.06;5011015;28;20025;-69
2021/04/28 00:07:49;;;;;;;26.08;15.30;;;;;;;13.10;67.64;100133.56;5009646;28;20109;-68
2021/04/28 00:10:17;;;;;;;26.20;15.27;;;;;;;13.29;67.35;100149.50;5011123;28;20030;-67
2021/04/28 00:12:43;;;;;;;20.30;12.85;;;;;;;13.24;67.46;100139.03;5011056;28;20026;-70
2021/04/28 00:15:16;;;;;;;18.95;12.85;;;;;;;13.05;68.01;100147.28;5010850;28;20072;-70
2021/04/28 00:17:42;;;;;;;36.40;21.52;;;;;;;12.79;68.37;100140.66;5010462;28;20112;-70
2021/04/28 00:20:09;;;;;;;34.50;18.42;;;;;;;12.77;68.79;100138.88;5010599;28;20110;-70
2021/04/28 00:22:34;;;;;;;26.00;15.63;;;;;;;12.51;69.51;100156.41;5010544;28;20563;-69
2021/04/28 00:25:01;;;;;;;30.42;15.27;;;;;;;12.10;70.50;100114.03;5010631;28;20109;-70
2021/04/28 00:27:27;;;;;;;24.25;15.75;;;;;;;12.23;70.94;100135.03;5011120;28;20018;-69
2021/04/28 00:29:52;;;;;;;25.73;22.65;;;;;;;12.29;71.04;100148.97;5010617;28;20128;-69
2021/04/28 00:32:18;;;;;;;20.55;15.77;;;;;;;11.95;71.36;100100.66;5010280;28;20033;-69
2021/04/28 00:34:43;;;;;;;19.10;13.93;;;;;;;12.23;71.46;100147.97;5010470;28;20415;-69
2021/04/28 00:37:08;;;;;;;22.67;13.82;;;;;;;12.06;71.91;100155.28;5010861;28;20044;-71
2021/04/28 00:39:34;;;;;;;17.70;12.82;;;;;;;12.06;72.54;100161.38;5009438;28;20030;-70
2021/04/28 00:42:00;;;;;;;19.38;13.45;;;;;;;11.74;72.82;100130.31;5010682;28;20061;-70
2021/04/28 00:44:25;;;;;;;19.95;13.48;;;;;;;11.75;74.12;100165.69;5010952;28;20082;-68
2021/04/28 00:46:51;;;;;;;19.10;14.50;;;;;;;11.60;75.03;100168.72;5010972;28;20088;-68
2021/04/28 00:49:16;;;;;;;21.40;14.40;;;;;;;11.26;75.75;100122.94;5010048;28;20555;-66
2021/04/28 00:51:42;;;;;;;113.63;57.47;;;;;;;11.54;76.19;100186.66;5010683;28;20136;-69
2021/04/28 00:54:07;;;;;;;29.30;18.88;;;;;;;11.35;77.46;100168.84;5010392;28;20476;-70
2021/04/28 00:56:33;;;;;;;84.57;37.20;;;;;;;11.39;77.47;100170.69;5010604;28;20072;-69
2021/04/28 00:58:58;;;;;;;40.05;22.20;;;;;;;11.30;77.99;100153.22;5010793;28;20080;-69
2021/04/28 01:01:24;;;;;;;25.85;16.90;;;;;;;11.44;78.22;100151.00;5013104;28;20049;-69
2021/04/28 01:03:50;;;;;;;41.95;23.63;;;;;;;11.61;77.82;100149.81;5013551;28;20088;-70
2021/04/28 01:06:16;;;;;;;26.52;18.42;;;;;;;11.60;78.37;100149.72;5044838;28;20041;-70
2021/04/28 01:08:41;;;;;;;25.08;16.48;;;;;;;11.28;78.39;100096.31;5013993;28;20030;-71
2021/04/28 01:11:07;;;;;;;64.35;32.28;;;;;;;11.23;78.43;100105.66;5012618;28;20164;-69
2021/04/28 01:13:34;;;;;;;37.70;22.55;;;;;;;11.43;79.31;100142.41;5013309;28;20026;-70
2021/04/28 01:16:00;;;;;;;27.77;17.73;;;;;;;11.56;79.07;100141.00;5013710;28;20565;-71
2021/04/28 01:18:25;;;;;;;22.00;15.55;;;;;;;11.73;78.81;100143.22;5011920;28;20404;-70
2021/04/28 01:20:51;;;;;;;28.23;18.13;;;;;;;11.83;78.16;100145.19;5013932;28;20033;-69
2021/04/28 01:23:17;;;;;;;49.22;25.70;;;;;;;11.79;77.70;100152.00;5013318;28;20479;-69
2021/04/28 01:25:43;;;;;;;32.65;21.52;;;;;;;11.71;78.14;100156.06;5012233;28;20032;-70
2021/04/28 01:28:12;;;;;;;32.92;19.85;;;;;;;11.29;78.92;100107.50;5013827;28;20022;-68
2021/04/28 01:30:47;;;;;;;30.92;20.95;;;;;;;11.54;79.63;100162.50;5013184;28;20052;-70
2021/04/28 01:33:15;;;;;;;33.05;20.52;;;;;;;11.58;79.69;100161.75;5013499;28;20041;-69
2021/04/28 01:35:43;;;;;;;34.88;20.13;;;;;;;11.56;79.21;100159.09;5013352;28;20026;-70
2021/04/28 01:38:10;;;;;;;36.35;22.83;;;;;;;11.67;79.33;100174.06;5012063;28;20061;-70
2021/04/28 01:40:36;;;;;;;45.25;27.08;;;;;;;11.60;79.49;100163.56;5011884;28;20041;-70
2021/04/28 01:43:03;;;;;;;44.33;22.95;;;;;;;11.72;79.17;100167.31;5013219;28;20022;-70
2021/04/28 01:45:33;;;;;;;35.45;21.42;;;;;;;11.78;78.66;100155.41;5012969;28;20450;-69
2021/04/28 01:48:04;;;;;;;49.10;27.25;;;;;;;11.75;78.15;100157.03;5013376;28;20024;-69
2021/04/28 01:50:31;;;;;;;40.58;25.05;;;;;;;11.56;78.02;100096.19;5011647;28;20579;-69
2021/04/28 01:52:57;;;;;;;32.38;22.48;;;;;;;11.35;77.57;100066.34;5011827;28;20079;-67
2021/04/28 01:55:23;;;;;;;32.95;23.67;;;;;;;11.89;78.13;100147.94;5012993;28;20504;-70
2021/04/28 01:57:49;;;;;;;30.88;21.23;;;;;;;12.01;77.86;100146.53;5012363;28;20472;-67
2021/04/28 02:00:18;;;;;;;22.52;16.90;;;;;;;12.16;77.25;100141.75;5012687;28;20044;-70
2021/04/28 02:02:44;;;;;;;39.17;18.50;;;;;;;12.18;77.42;100142.66;5012713;28;20104;-68
2021/04/28 02:05:11;;;;;;;41.72;18.98;;;;;;;12.23;76.68;100151.41;5012561;28;20068;-67
2021/04/28 02:07:37;;;;;;;42.53;18.30;;;;;;;12.42;76.26;100154.47;5012595;28;20026;-70
2021/04/28 02:10:06;;;;;;;47.65;18.20;;;;;;;12.33;75.78;100144.75;5012393;28;20083;-71
2021/04/28 02:12:31;;;;;;;40.40;17.77;;;;;;;12.43;74.99;100132.91;5012185;28;20033;-70
2021/04/28 02:14:57;;;;;;;41.33;17.30;;;;;;;12.48;74.36;100154.63;5012564;28;20496;-69
2021/04/28 02:17:24;;;;;;;37.85;17.33;;;;;;;12.63;74.04;100151.50;5012772;28;20472;-71
2021/04/28 02:19:50;;;;;;;123.50;51.88;;;;;;;12.67;73.41;100152.47;5011184;28;20029;-69
2021/04/28 02:22:16;;;;;;;84.80;37.70;;;;;;;12.49;74.14;100133.06;5012576;28;20014;-71
2021/04/28 02:24:42;;;;;;;42.75;24.25;;;;;;;12.59;74.39;100126.41;5012250;28;20026;-70
2021/04/28 02:27:07;;;;;;;25.15;16.70;;;;;;;12.58;74.38;100138.44;5011717;28;20030;-69
2021/04/28 02:29:33;;;;;;;31.70;18.92;;;;;;;12.41;74.47;100109.59;5012569;28;20061;-67
2021/04/28 02:31:59;;;;;;;29.75;17.88;;;;;;;12.26;74.60;100085.91;5012306;28;20022;-68
2021/04/28 02:34:25;;;;;;;34.35;20.08;;;;;;;12.34;75.44;100143.94;5012277;28;20032;-71
2021/04/28 02:36:54;;;;;;;31.50;17.88;;;;;;;12.32;75.50;100131.78;5011931;28;20026;-70
2021/04/28 02:39:41;;;;;;;26.13;16.90;;;;;;;11.63;76.45;100036.94;5012474;28;20112;-69
2021/04/28 02:42:07;;;;;;;75.65;36.72;;;;;;;12.16;76.28;100131.41;5010901;28;20484;-69
2021/04/28 02:44:34;;;;;;;88.55;41.78;;;;;;;11.93;76.92;100134.25;5012102;28;20026;-67
2021/04/28 02:47:02;;;;;;;49.58;26.67;;;;;;;11.62;77.86;100106.72;5012251;28;20420;-68
2021/04/28 02:49:29;;;;;;;65.63;34.53;;;;;;;11.59;78.39;100133.34;5011946;28;20029;-70
2021/04/28 02:51:56;;;;;;;26.85;19.83;;;;;;;11.57;78.79;100152.25;5011780;28;20025;-69
2021/04/28 02:54:22;;;;;;;27.27;19.33;;;;;;;11.48;79.41;100143.41;5011813;28;20018;-70
2021/04/28 02:56:54;;;;;;;47.10;29.30;;;;;;;11.32;80.33;100143.81;5011861;28;20045;-70
2021/04/28 02:59:20;;;;;;;31.95;21.27;;;;;;;11.27;80.96;100148.81;5010648;28;20124;-69
2021/04/28 03:01:48;;;;;;;29.08;20.65;;;;;;;11.30;81.62;100153.22;5011839;28;20022;-70
2021/04/28 03:04:16;;;;;;;24.08;19.67;;;;;;;11.37;81.35;100162.91;5011546;28;20506;-70
2021/04/28 03:06:41;;;;;;;29.70;20.20;;;;;;;11.38;81.26;100162.06;5012190;28;20022;-70
2021/04/28 03:09:07;;;;;;;26.52;19.00;;;;;;;11.42;81.62;100150.09;5011964;28;20486;-72
2021/04/28 03:11:36;;;;;;;26.55;18.77;;;;;;;11.52;81.15;100170.22;5008039;28;20109;-70
2021/04/28 03:14:03;;;;;;;28.15;18.30;;;;;;;11.52;81.18;100174.50;5011933;28;20025;-70
2021/04/28 03:16:29;;;;;;;27.40;19.35;;;;;;;11.43;81.63;100175.13;5011457;28;20113;-69
2021/04/28 03:18:54;;;;;;;28.70;22.17;;;;;;;11.31;81.84;100162.72;5011743;28;20520;-69
2021/04/28 03:21:24;;;;;;;30.73;23.17;;;;;;;11.38;82.37;100171.53;5011467;28;20038;-67
2021/04/28 03:23:50;;;;;;;54.60;31.35;;;;;;;11.32;83.25;100174.81;5010809;28;20076;-74
2021/04/28 03:26:16;;;;;;;44.92;28.13;;;;;;;11.14;83.30;100163.09;5012010;28;20037;-70
2021/04/28 03:28:41;;;;;;;29.10;22.38;;;;;;;11.17;84.07;100178.69;5011478;28;20018;-70
2021/04/28 03:31:07;;;;;;;36.88;23.08;;;;;;;11.28;83.96;100191.06;5011586;28;20026;-70
2021/04/28 03:33:32;;;;;;;50.50;30.33;;;;;;;11.10;83.47;100176.78;5011297;28;20036;-69
2021/04/28 03:35:58;;;;;;;26.23;19.40;;;;;;;11.25;83.85;100202.19;5011150;28;20042;-68
2021/04/28 03:38:24;;;;;;;31.50;20.65;;;;;;;11.30;83.74;100197.13;5011559;28;20030;-69
2021/04/28 03:40:49;;;;;;;34.72;22.30;;;;;;;11.42;83.25;100194.06;5011689;28;20021;-70
2021/04/28 03:43:15;;;;;;;35.38;22.60;;;;;;;11.28;83.14;100193.66;5011195;28;20682;-68
2021/04/28 03:45:40;;;;;;;29.63;19.45;;;;;;;11.21;83.86;100202.03;5011192;28;20026;-70
2021/04/28 03:48:06;;;;;;;38.17;22.40;;;;;;;11.04;83.42;100184.34;5010969;28;20099;-71
2021/04/28 03:50:31;;;;;;;30.42;20.23;;;;;;;10.92;83.80;100152.97;5011792;28;20033;-68
2021/04/28 03:52:57;;;;;;;25.17;18.10;;;;;;;11.12;83.84;100203.50;5010486;28;20152;-69
2021/04/28 03:55:22;;;;;;;37.75;22.80;;;;;;;11.09;83.66;100221.53;5009332;28;20534;-72
2021/04/28 03:57:48;;;;;;;28.73;21.05;;;;;;;11.06;84.00;100215.38;4992862;28;20042;-68
2021/04/28 04:00:13;;;;;;;24.73;18.77;;;;;;;11.07;84.57;100212.84;4992768;28;20037;-77
2021/04/28 04:02:39;;;;;;;35.70;22.67;;;;;;;10.91;84.89;100214.06;5001313;28;20117;-69
2021/04/28 04:05:05;;;;;;;27.70;20.13;;;;;;;10.92;85.54;100217.53;5002395;28;20594;-72
2021/04/28 04:07:31;;;;;;;26.42;18.05;;;;;;;11.00;85.77;100218.63;5008167;28;20034;-76
2021/04/28 04:09:56;;;;;;;28.30;18.55;;;;;;;11.03;85.10;100221.31;5011541;28;20040;-71
2021/04/28 04:12:22;;;;;;;22.65;17.67;;;;;;;10.86;84.73;100174.31;5011129;28;20403;-72
2021/04/28 04:14:49;;;;;;;30.30;26.83;;;;;;;11.18;83.95;100202.84;5011371;28;20030;-69
2021/04/28 04:17:14;;;;;;;22.98;19.42;;;;;;;11.17;84.02;100222.59;5011176;28;20061;-69
2021/04/28 04:19:39;;;;;;;19.55;16.08;;;;;;;11.24;83.86;100223.69;5001793;28;20084;-69
2021/04/28 04:22:05;;;;;;;18.85;14.77;;;;;;;11.25;83.35;100228.03;5011324;28;20036;-70
2021/04/28 04:24:31;;;;;;;20.83;13.30;;;;;;;11.17;84.86;100226.91;5003663;28;20465;-71
2021/04/28 04:26:56;;;;;;;21.75;14.02;;;;;;;11.23;83.19;100236.56;5003212;28;20065;-69
2021/04/28 04:29:22;;;;;;;18.58;12.48;;;;;;;11.15;83.22;100221.72;5008243;28;20411;-70
2021/04/28 04:31:47;;;;;;;16.33;12.68;;;;;;;11.33;83.15;100243.75;5011279;28;20026;-71
2021/04/28 04:34:13;;;;;;;16.42;12.35;;;;;;;11.36;83.14;100237.81;5011218;28;20057;-71
2021/04/28 04:36:38;;;;;;;20.17;12.75;;;;;;;11.45;82.40;100244.13;5014669;28;20026;-71
2021/04/28 04:39:05;;;;;;;17.40;11.50;;;;;;;11.46;82.92;100250.16;5013965;28;20116;-69
2021/04/28 04:41:32;;;;;;;15.85;10.35;;;;;;;11.47;82.20;100257.09;5015119;28;20026;-70
2021/04/28 04:43:57;;;;;;;16.52;9.93;;;;;;;11.39;82.02;100256.88;5013584;28;20173;-71
2021/04/28 04:46:23;;;;;;;13.50;10.05;;;;;;;11.54;82.19;100258.16;5015006;28;20130;-70
2021/04/28 04:48:49;;;;;;;21.15;11.68;;;;;;;11.60;81.70;100271.25;5015016;28;20026;-71
2021/04/28 04:51:14;;;;;;;34.08;14.63;;;;;;;11.61;81.39;100270.44;5013809;28;20018;-70
2021/04/28 04:53:40;;;;;;;22.45;11.90;;;;;;;11.69;81.24;100268.97;5014750;28;20037;-73
2021/04/28 04:56:05;;;;;;;21.35;11.52;;;;;;;11.41;81.01;100219.00;5014722;28;20476;-71
2021/04/28 04:58:31;;;;;;;21.63;11.20;;;;;;;11.82;79.95;100281.41;5012873;28;20156;-71
2021/04/28 05:00:57;;;;;;;27.02;14.90;;;;;;;11.81;80.23;100287.41;5014575;28;20038;-73
2021/04/28 05:03:22;;;;;;;28.00;15.55;;;;;;;11.75;80.63;100299.28;5014646;28;20037;-69
2021/04/28 05:05:47;;;;;;;31.63;16.33;;;;;;;11.71;81.22;100287.09;5014417;28;20026;-72
2021/04/28 05:08:13;;;;;;;23.38;12.38;;;;;;;11.84;80.31;100277.97;5014680;28;20459;-69
2021/04/28 05:10:38;;;;;;;19.38;9.98;;;;;;;11.94;79.50;100286.03;5014495;28;20030;-73
2021/04/28 05:13:04;;;;;;;25.77;13.65;;;;;;;12.11;79.06;100288.25;5014519;28;20026;-75
2021/04/28 05:15:29;;;;;;;14.68;9.88;;;;;;;12.13;78.94;100296.94;5014436;28;20396;-72
2021/04/28 05:17:59;;;;;;;26.15;11.90;;;;;;;12.14;79.05;100298.72;5014276;28;20018;-73
2021/04/28 05:20:25;;;;;;;24.15;11.68;;;;;;;12.24;78.46;100305.03;5014655;28;20018;-71
2021/04/28 05:22:51;;;;;;;32.15;11.57;;;;;;;12.38;77.45;100302.81;5014363;28;20042;-69
2021/04/28 05:25:16;;;;;;;33.30;12.07;;;;;;;12.49;77.15;100305.69;5012985;28;20092;-71
2021/04/28 05:27:42;;;;;;;26.83;10.05;;;;;;;12.55;76.83;100317.06;5014380;28;20026;-71
2021/04/28 05:30:09;;;;;;;24.35;10.27;;;;;;;12.49;76.33;100308.28;5012818;28;20053;-75
2021/04/28 05:32:35;;;;;;;20.92;10.27;;;;;;;12.62;75.54;100307.72;5013777;28;20484;-69
2021/04/28 05:35:01;;;;;;;18.15;9.30;;;;;;;12.71;75.12;100308.00;5012958;28;20030;-71
2021/04/28 05:37:26;;;;;;;25.50;9.85;;;;;;;12.54;74.45;100271.28;5051503;28;20110;-69
2021/04/28 05:39:52;;;;;;;23.90;9.50;;;;;;;12.91;74.34;100315.38;5051363;28;20067;-71
2021/04/28 05:42:17;;;;;;;19.23;8.63;;;;;;;12.83;74.21;100322.09;5051508;28;20045;-72
2021/04/28 05:44:45;;;;;;;20.95;8.60;;;;;;;12.84;74.21;100308.31;5048459;28;20120;-69
2021/04/28 05:47:10;;;;;;;28.77;9.75;;;;;;;12.92;74.96;100304.16;5050776;28;20073;-69
2021/04/28 05:49:36;;;;;;;25.77;8.38;;;;;;;13.03;74.18;100307.03;5051329;28;20055;-70
2021/04/28 05:52:02;;;;;;;20.20;7.60;;;;;;;13.13;73.33;100306.41;5051090;28;20044;-71
2021/04/28 05:54:28;;;;;;;16.92;7.55;;;;;;;12.93;72.92;100260.19;5051097;28;20517;-71
2021/04/28 05:56:54;;;;;;;21.25;8.73;;;;;;;13.13;73.38;100264.06;5050846;28;20045;-71
2021/04/28 05:59:20;;;;;;;21.50;8.25;;;;;;;13.38;73.20;100304.41;5050966;28;20080;-70
2021/04/28 06:01:45;;;;;;;18.55;8.07;;;;;;;13.63;72.02;100303.25;5050832;28;20080;-76
2021/04/28 06:04:11;;;;;;;15.20;7.47;;;;;;;13.65;71.32;100303.28;5050906;28;20503;-69
2021/04/28 06:06:36;;;;;;;12.18;6.70;;;;;;;13.71;71.40;100306.03;5050804;28;20051;-71
2021/04/28 06:09:04;;;;;;;15.40;7.68;;;;;;;13.80;71.38;100315.72;5022489;28;20037;-69
2021/04/28 06:11:29;;;;;;;20.27;9.48;;;;;;;13.86;70.08;100301.16;5013188;28;20109;-69
2021/04/28 06:13:55;;;;;;;14.02;6.80;;;;;;;13.73;69.55;100273.19;5013161;28;20146;-72
2021/04/28 06:16:20;;;;;;;12.90;5.82;;;;;;;14.00;69.46;100316.13;5013057;28;20112;-76
2021/04/28 06:18:46;;;;;;;11.80;6.45;;;;;;;14.12;69.22;100307.69;5013265;28;20057;-69
2021/04/28 06:21:12;;;;;;;9.73;5.90;;;;;;;14.09;68.79;100298.13;5013324;28;20030;-70
2021/04/28 06:23:38;;;;;;;8.77;5.43;;;;;;;14.24;68.16;100310.53;5012997;28;20034;-69
2021/04/28 06:26:04;;;;;;;12.57;6.07;;;;;;;14.14;68.82;100312.06;5011671;28;20041;-71
2021/04/28 06:28:30;;;;;;;19.63;7.05;;;;;;;14.40;68.38;100306.53;5012892;28;20037;-71
2021/04/28 06:30:56;;;;;;;19.20;6.57;;;;;;;14.60;68.62;100311.22;5011657;28;20033;-71
2021/04/28 06:33:22;;;;;;;13.02;6.22;;;;;;;14.52;66.71;100277.31;5012983;28;20049;-71
2021/04/28 06:35:48;;;;;;;13.18;6.35;;;;;;;14.71;66.01;100304.50;5027225;28;20412;-69
2021/04/28 06:38:13;;;;;;;14.57;5.65;;;;;;;14.78;65.21;100306.38;5012753;28;20030;-72
2021/04/28 06:40:39;;;;;;;14.38;6.40;;;;;;;14.81;65.59;100313.34;5012738;28;20033;-71
2021/04/28 06:43:05;;;;;;;9.65;6.05;;;;;;;14.87;65.06;100301.31;5012754;28;20026;-71
2021/04/28 06:45:31;;;;;;;17.25;5.85;;;;;;;15.05;64.05;100305.06;5012878;28;20407;-71
2021/04/28 06:47:57;;;;;;;22.73;7.30;;;;;;;15.12;65.67;100301.72;5013074;28;20112;-72
2021/04/28 06:50:22;;;;;;;22.58;7.20;;;;;;;15.35;64.88;100314.19;5029833;28;20207;-69
2021/04/28 06:52:48;;;;;;;27.25;6.38;;;;;;;15.39;63.12;100316.00;5030150;28;20851;-69
2021/04/28 06:55:13;;;;;;;11.95;5.00;;;;;;;15.50;62.25;100314.44;5030245;28;20042;-71
2021/04/28 06:57:39;;;;;;;11.40;5.68;;;;;;;15.37;62.09;100320.28;5029003;28;20049;-74
2021/04/28 07:00:06;;;;;;;18.08;6.75;;;;;;;15.52;62.73;100310.09;5029623;28;20041;-73
2021/04/28 07:02:31;;;;;;;15.05;5.85;;;;;;;15.67;62.00;100309.44;5029840;28;20119;-72
2021/04/28 07:04:57;;;;;;;12.68;5.97;;;;;;;15.70;61.82;100313.81;5029810;28;20092;-71
2021/04/28 07:07:22;;;;;;;15.93;6.20;;;;;;;15.72;62.61;100316.47;5029830;28;20034;-73
2021/04/28 07:09:48;;;;;;;30.42;11.98;;;;;;;15.83;61.89;100322.69;5029595;28;20038;-71
2021/04/28 07:12:14;;;;;;;36.33;14.77;;;;;;;15.92;65.31;100315.00;5013253;28;20026;-71
2021/04/28 07:14:39;;;;;;;23.35;8.02;;;;;;;16.11;61.70;100317.84;5029598;28;20033;-69
2021/04/28 07:17:04;;;;;;;28.60;12.57;;;;;;;16.25;63.26;100324.09;5029658;28;20045;-69
2021/04/28 07:19:30;;;;;;;15.68;5.82;;;;;;;16.34;61.35;100332.00;5029691;28;20021;-69
2021/04/28 07:21:55;;;;;;;17.17;5.78;;;;;;;16.43;59.55;100322.53;5016866;28;20127;-72
2021/04/28 07:24:21;;;;;;;27.48;11.93;;;;;;;16.40;61.48;100323.38;5012137;28;20025;-69
2021/04/28 07:26:46;;;;;;;18.50;9.48;;;;;;;16.57;60.99;100320.94;5012468;28;20449;-72
2021/04/28 07:29:12;;;;;;;9.93;4.95;;;;;;;16.66;60.28;100318.44;5010787;28;20030;-70
2021/04/28 07:31:38;;;;;;;16.92;5.68;;;;;;;16.65;60.25;100321.88;5012063;28;20030;-71
2021/04/28 07:34:04;;;;;;;11.02;5.70;;;;;;;16.45;61.66;100285.22;5012130;28;20098;-72
2021/04/28 07:36:29;;;;;;;8.40;5.03;;;;;;;16.50;61.85;100320.00;5011833;28;20400;-71
2021/04/28 07:38:55;;;;;;;13.98;5.20;;;;;;;16.42;62.29;100323.38;5011848;28;20026;-71
2021/04/28 07:41:20;;;;;;;8.05;5.15;;;;;;;16.58;62.78;100335.72;5011652;28;20113;-70
2021/04/28 07:43:46;;;;;;;9.50;4.75;;;;;;;16.48;60.94;100339.09;5011702;28;20101;-69
2021/04/28 07:46:11;;;;;;;11.25;6.07;;;;;;;16.47;61.80;100326.91;5011949;28;20542;-69
2021/04/28 07:48:37;;;;;;;14.23;7.38;;;;;;;16.60;61.98;100334.00;5012029;28;20451;-71
2021/04/28 07:51:02;;;;;;;12.85;5.70;;;;;;;16.31;63.35;100328.47;5012135;28;20026;-69
2021/04/28 07:53:29;;;;;;;23.98;11.50;;;;;;;16.25;63.15;100334.50;5010602;28;20088;-68
2021/04/28 07:55:54;;;;;;;25.67;11.23;;;;;;;16.33;61.27;100330.22;5011957;28;20034;-72
2021/04/28 07:58:20;;;;;;;15.68;6.38;;;;;;;16.63;61.67;100347.06;5010163;28;20496;-74
2021/04/28 08:00:46;;;;;;;19.38;6.07;;;;;;;16.71;62.73;100343.66;5010472;28;20022;-71
2021/04/28 08:03:11;;;;;;;15.32;5.07;;;;;;;16.60;60.12;100326.19;5011660;28;20037;-71
2021/04/28 08:05:37;;;;;;;34.40;14.82;;;;;;;16.92;60.06;100336.09;5011401;28;20052;-71
2021/04/28 08:08:03;;;;;;;11.85;5.90;;;;;;;16.99;60.92;100331.78;5011821;28;20080;-69
2021/04/28 08:10:29;;;;;;;21.38;11.07;;;;;;;17.03;60.46;100332.69;5014736;28;20403;-71
2021/04/28 08:12:55;;;;;;;26.73;11.70;;;;;;;16.91;61.57;100336.94;5015434;28;20034;-74
2021/04/28 08:15:20;;;;;;;15.05;6.85;;;;;;;16.80;59.36;100281.19;5015654;28;20029;-72
2021/04/28 08:17:46;;;;;;;23.85;10.35;;;;;;;16.95;60.79;100283.94;5015730;28;20476;-72
2021/04/28 08:20:13;;;;;;;13.50;5.93;;;;;;;17.06;59.58;100317.03;5046606;28;20070;-70
2021/04/28 08:22:39;;;;;;;15.00;5.93;;;;;;;17.20;59.44;100325.88;5015392;28;20112;-73
2021/04/28 08:25:08;;;;;;;40.08;21.13;;;;;;;17.12;59.96;100289.28;5015359;28;20100;-69
2021/04/28 08:27:33;;;;;;;14.00;6.30;;;;;;;17.17;59.16;100294.56;5015350;28;20091;-71
2021/04/28 08:29:59;;;;;;;16.67;7.97;;;;;;;17.36;61.96;100320.75;5015488;28;20041;-73
2021/04/28 08:32:25;;;;;;;18.63;8.02;;;;;;;17.50;60.23;100319.09;5015184;28;20037;-70
2021/04/28 08:34:52;;;;;;;27.88;13.13;;;;;;;17.70;60.35;100318.34;5015609;28;20141;-68
2021/04/28 08:37:18;;;;;;;14.93;6.85;;;;;;;17.60;58.77;100260.84;5046183;28;20073;-67
2021/04/28 08:39:43;;;;;;;19.70;9.48;;;;;;;17.88;57.05;100305.38;5012016;28;20069;-71
2021/04/28 08:42:09;;;;;;;13.90;6.18;;;;;;;17.85;56.69;100294.91;5013564;28;20038;-69
2021/04/28 08:44:35;;;;;;;14.73;6.00;;;;;;;18.06;57.31;100303.75;5014758;28;20159;-69
2021/04/28 08:47:01;;;;;;;21.65;9.50;;;;;;;18.20;55.59;100312.47;5014510;28;20029;-69
2021/04/28 08:49:26;;;;;;;23.45;12.95;;;;;;;18.22;55.35;100310.75;5014575;28;20036;-70
2021/04/28 08:51:53;;;;;;;12.43;5.65;;;;;;;18.23;55.86;100307.28;5014617;28;20385;-72
2021/04/28 08:54:18;;;;;;;13.18;5.75;;;;;;;18.23;56.36;100265.47;5014478;28;20030;-71
2021/04/28 08:56:52;;;;;;;19.38;6.00;;;;;;;18.62;54.02;100296.00;5014216;28;20052;-72
2021/04/28 08:59:19;;;;;;;18.05;7.13;;;;;;;18.59;55.09;100255.94;5014582;28;20061;-75
2021/04/28 09:01:48;;;;;;;16.35;5.85;;;;;;;18.99;53.75;100286.47;5014077;28;20022;-74
2021/04/28 09:04:16;;;;;;;16.58;7.20;;;;;;;19.17;54.23;100293.44;5014313;28;20038;-74
2021/04/28 09:06:42;;;;;;;15.18;8.23;;;;;;;18.94;54.19;100287.34;5014103;28;20022;-72
2021/04/28 09:09:16;;;;;;;33.45;15.50;;;;;;;18.87;53.89;100253.31;5014125;28;20105;-70
2021/04/28 09:11:43;;;;;;;21.08;10.73;;;;;;;19.15;53.61;100276.88;5014277;28;20058;-70
2021/04/28 09:14:20;;;;;;;15.48;5.72;;;;;;;19.40;52.47;100284.66;5013967;28;20549;-70
2021/04/28 09:16:59;;;;;;;18.15;7.97;;;;;;;19.60;51.35;100282.00;5013954;28;20022;-71
2021/04/28 09:19:40;;;;;;;11.88;5.05;;;;;;;19.34;51.20;100280.31;5013383;28;20034;-69
2021/04/28 09:22:09;;;;;;;20.48;7.43;;;;;;;19.43;53.53;100270.69;5027047;28;20049;-70
2021/04/28 09:24:37;;;;;;;16.05;7.65;;;;;;;19.52;52.00;100260.19;5033890;28;20033;-72
2021/04/28 09:27:04;;;;;;;15.90;7.53;;;;;;;19.71;51.60;100263.63;5034028;28;20029;-71
2021/04/28 09:29:34;;;;;;;8.18;4.47;;;;;;;19.52;50.67;100254.97;5034075;28;20438;-72
2021/04/28 09:32:07;;;;;;;15.20;5.22;;;;;;;19.24;50.98;100249.81;5033714;28;20028;-71
2021/04/28 09:34:39;;;;;;;11.80;4.50;;;;;;;19.55;51.13;100261.06;5034002;28;20038;-70
2021/04/28 09:37:10;;;;;;;14.48;6.85;;;;;;;19.70;50.26;100236.56;5033890;28;20026;-70
2021/04/28 09:39:44;;;;;;;17.83;5.95;;;;;;;19.97;48.84;100232.09;5033964;28;20029;-72
2021/04/28 09:42:11;;;;;;;28.73;10.13;;;;;;;20.18;50.92;100244.19;5032349;28;20025;-69
2021/04/28 09:44:38;;;;;;;17.92;6.18;;;;;;;20.32;51.06;100245.84;5033869;28;20030;-69
2021/04/28 09:47:10;;;;;;;26.73;7.60;;;;;;;20.52;47.93;100243.97;5033884;28;20031;-72
2021/04/28 09:49:47;;;;;;;9.25;5.00;;;;;;;20.43;50.25;100214.31;5033528;28;20034;-69
2021/04/28 09:52:15;;;;;;;13.88;5.25;;;;;;;20.55;51.03;100227.34;5033715;28;20097;-69
2021/04/28 09:54:43;;;;;;;10.32;5.13;;;;;;;20.64;48.84;100226.41;5033425;28;20120;-70
2021/04/28 09:57:09;;;;;;;9.70;6.10;;;;;;;20.50;47.89;100226.50;5033343;28;20121;-69
2021/04/28 09:59:51;;;;;;;10.35;5.07;;;;;;;20.64;45.54;100234.25;5033527;28;20029;-70
2021/04/28 10:02:37;;;;;;;10.45;4.80;;;;;;;20.67;45.70;100242.97;5033256;28;20022;-70
2021/04/28 10:05:15;;;;;;;10.18;5.07;;;;;;;20.60;46.60;100232.53;5032765;28;20507;-72
2021/04/28 10:07:41;;;;;;;17.60;6.20;;;;;;;20.55;46.28;100229.97;5032398;28;20041;-72
2021/04/28 10:10:07;;;;;;;24.38;12.45;;;;;;;20.80;47.80;100214.06;5033502;28;20394;-73
2021/04/28 10:12:33;;;;;;;34.70;17.23;;;;;;;21.19;48.98;100224.16;5032809;28;20078;-70
2021/04/28 10:14:58;;;;;;;19.67;5.55;;;;;;;21.43;47.38;100220.38;5033198;28;20514;-70
2021/04/28 10:17:24;;;;;;;20.65;6.38;;;;;;;21.52;46.48;100211.50;5032793;28;20094;-70
2021/04/28 10:19:52;;;;;;;23.60;12.27;;;;;;;21.66;49.04;100222.75;5032981;28;20033;-71
2021/04/28 10:22:19;;;;;;;17.17;7.10;;;;;;;21.71;48.25;100218.31;5033034;28;20033;-68
2021/04/28 10:24:52;;;;;;;13.80;4.78;;;;;;;21.78;45.77;100217.34;5032800;28;20085;-70
2021/04/28 10:27:18;;;;;;;16.23;5.57;;;;;;;21.84;47.09;100210.28;5032847;28;20030;-70
2021/04/28 10:29:49;;;;;;;14.20;7.93;;;;;;;21.66;46.20;100214.88;5032888;28;20034;-70
2021/04/28 10:32:16;;;;;;;17.83;6.63;;;;;;;21.60;48.97;100212.34;5032645;28;20508;-72
2021/04/28 10:35:00;;;;;;;13.93;4.40;;;;;;;21.91;47.05;100220.66;5030628;28;20120;-75
2021/04/28 10:37:28;;;;;;;18.58;9.23;;;;;;;21.88;48.86;100207.59;5032359;28;20513;-69
2021/04/28 10:39:54;;;;;;;12.85;5.68;;;;;;;21.95;46.67;100216.25;5032773;28;20030;-72
2021/04/28 10:42:25;;;;;;;19.90;8.02;;;;;;;22.06;46.84;100208.22;5032828;28;20039;-70
2021/04/28 10:44:52;;;;;;;7.95;4.65;;;;;;;22.06;45.88;100181.91;5032353;28;20574;-70
2021/04/28 10:47:27;;;;;;;14.00;6.53;;;;;;;21.86;47.08;100192.69;5032681;28;20511;-72
2021/04/28 10:50:14;;;;;;;21.60;8.00;;;;;;;22.02;46.77;100196.88;5032324;28;20075;-73
2021/04/28 10:52:56;;;;;;;14.52;5.85;;;;;;;22.32;46.58;100193.78;5032481;28;20402;-74
2021/04/28 10:55:53;;;;;;;11.60;4.82;;;;;;;22.62;45.03;100192.44;5032269;28;20033;-70
2021/04/28 10:58:31;;;;;;;10.27;5.05;;;;;;;22.81;44.94;100192.97;5048384;28;20053;-72
2021/04/28 11:01:05;;;;;;;16.50;7.07;;;;;;;22.90;45.29;100184.94;5049679;28;20069;-72
2021/04/28 11:03:42;;;;;;;11.57;6.03;;;;;;;22.71;44.75;100155.44;5032992;28;20041;-72
2021/04/28 11:06:16;;;;;;;21.33;9.70;;;;;;;22.76;43.99;100172.00;5049683;28;20176;-72
2021/04/28 11:08:44;;;;;;;12.77;4.35;;;;;;;22.81;45.58;100171.91;5049833;28;20045;-72
2021/04/28 11:11:44;;;;;;;30.23;14.52;;;;;;;22.43;44.35;100166.44;5049702;28;20525;-73